sensor_id;sensor_type;location;lat;lon;timestamp;temperature;humidity
58809;DHT22;44579;51.672;7.834;2023-08-17T00:01:57;19.80;83.40
58809;DHT22;44579;51.672;7.834;2023-08-17T00:04:23;19.80;83.00
58809;DHT22;44579;51.672;7.834;2023-08-17T00:06:50;19.90;82.60
58809;DHT22;44579;51.672;7.834;2023-08-17T00:09:19;19.90;82.50
58809;DHT22;44579;51.672;7.834;2023-08-17T00:11:46;19.90;82.20
58809;DHT22;44579;51.672;7.834;2023-08-17T00:14:12;19.80;82.10
58809;DHT22;44579;51.672;7.834;2023-08-17T00:16:39;19.80;82.10
58809;DHT22;44579;51.672;7.834;2023-08-17T00:19:08;19.50;82.90
58809;DHT22;44579;51.672;7.834;2023-08-17T00:21:35;19.40;83.80
58809;DHT22;44579;51.672;7.834;2023-08-17T00:24:02;19.40;84.30
58809;DHT22;44579;51.672;7.834;2023-08-17T00:26:32;19.40;84.70
58809;DHT22;44579;51.672;7.834;2023-08-17T00:29:00;19.30;84.80
58809;DHT22;44579;51.672;7.834;2023-08-17T00:31:28;19.30;84.60
58809;DHT22;44579;51.672;7.834;2023-08-17T00:33:55;19.30;84.50
58809;DHT22;44579;51.672;7.834;2023-08-17T00:36:23;19.30;84.90
58809;DHT22;44579;51.672;7.834;2023-08-17T00:38:50;19.20;85.60
58809;DHT22;44579;51.672;7.834;2023-08-17T00:41:16;19.10;85.90
58809;DHT22;44579;51.672;7.834;2023-08-17T00:43:43;19.10;86.20
58809;DHT22;44579;51.672;7.834;2023-08-17T00:46:10;18.90;87.30
58809;DHT22;44579;51.672;7.834;2023-08-17T00:48:39;18.70;88.50
58809;DHT22;44579;51.672;7.834;2023-08-17T00:51:07;18.60;89.50
58809;DHT22;44579;51.672;7.834;2023-08-17T00:53:34;18.60;89.50
58809;DHT22;44579;51.672;7.834;2023-08-17T00:56:01;18.50;89.80
58809;DHT22;44579;51.672;7.834;2023-08-17T00:58:29;18.30;90.50
58809;DHT22;44579;51.672;7.834;2023-08-17T01:00:57;18.30;90.80
58809;DHT22;44579;51.672;7.834;2023-08-17T01:03:24;18.10;91.30
58809;DHT22;44579;51.672;7.834;2023-08-17T01:05:51;18.00;91.90
58809;DHT22;44579;51.672;7.834;2023-08-17T01:08:18;17.90;92.40
58809;DHT22;44579;51.672;7.834;2023-08-17T01:10:59;17.80;92.80
58809;DHT22;44579;51.672;7.834;2023-08-17T01:16:19;17.80;93.10
58809;DHT22;44579;51.672;7.834;2023-08-17T01:18:48;17.80;93.20
58809;DHT22;44579;51.672;7.834;2023-08-17T01:21:18;17.80;93.20
58809;DHT22;44579;51.672;7.834;2023-08-17T01:23:51;17.90;93.00
58809;DHT22;44579;51.672;7.834;2023-08-17T01:26:18;17.90;93.00
58809;DHT22;44579;51.672;7.834;2023-08-17T01:28:45;17.90;92.90
58809;DHT22;44579;51.672;7.834;2023-08-17T01:31:26;17.90;93.10
58809;DHT22;44579;51.672;7.834;2023-08-17T01:33:59;17.80;93.20
58809;DHT22;44579;51.672;7.834;2023-08-17T01:36:36;17.90;93.20
58809;DHT22;44579;51.672;7.834;2023-08-17T01:39:06;17.90;93.20
58809;DHT22;44579;51.672;7.834;2023-08-17T01:41:34;17.90;93.30
58809;DHT22;44579;51.672;7.834;2023-08-17T01:44:03;17.90;93.50
58809;DHT22;44579;51.672;7.834;2023-08-17T01:46:32;17.90;93.60
58809;DHT22;44579;51.672;7.834;2023-08-17T01:49:00;17.90;93.40
58809;DHT22;44579;51.672;7.834;2023-08-17T01:51:29;17.90;93.40
58809;DHT22;44579;51.672;7.834;2023-08-17T01:53:55;17.90;93.40
58809;DHT22;44579;51.672;7.834;2023-08-17T01:56:23;18.00;93.40
58809;DHT22;44579;51.672;7.834;2023-08-17T01:58:50;17.90;93.60
58809;DHT22;44579;51.672;7.834;2023-08-17T02:01:17;17.90;93.60
58809;DHT22;44579;51.672;7.834;2023-08-17T02:03:45;17.90;93.80
58809;DHT22;44579;51.672;7.834;2023-08-17T02:06:13;17.80;94.00
58809;DHT22;44579;51.672;7.834;2023-08-17T02:08:41;17.80;94.00
58809;DHT22;44579;51.672;7.834;2023-08-17T02:11:14;17.90;94.00
58809;DHT22;44579;51.672;7.834;2023-08-17T02:13:43;17.90;94.10
58809;DHT22;44579;51.672;7.834;2023-08-17T02:16:11;17.80;94.20
58809;DHT22;44579;51.672;7.834;2023-08-17T02:18:38;17.80;94.40
58809;DHT22;44579;51.672;7.834;2023-08-17T02:21:07;17.80;94.60
58809;DHT22;44579;51.672;7.834;2023-08-17T02:23:39;17.80;94.60
58809;DHT22;44579;51.672;7.834;2023-08-17T02:26:06;17.80;94.80
58809;DHT22;44579;51.672;7.834;2023-08-17T02:28:33;17.80;94.40
58809;DHT22;44579;51.672;7.834;2023-08-17T02:31:00;17.70;94.40
58809;DHT22;44579;51.672;7.834;2023-08-17T02:33:27;17.70;94.40
58809;DHT22;44579;51.672;7.834;2023-08-17T02:35:54;17.70;94.50
58809;DHT22;44579;51.672;7.834;2023-08-17T02:38:21;17.70;94.50
58809;DHT22;44579;51.672;7.834;2023-08-17T02:40:49;17.70;94.40
58809;DHT22;44579;51.672;7.834;2023-08-17T02:43:16;17.70;94.20
58809;DHT22;44579;51.672;7.834;2023-08-17T02:45:43;17.70;94.20
58809;DHT22;44579;51.672;7.834;2023-08-17T02:48:20;17.80;94.20
58809;DHT22;44579;51.672;7.834;2023-08-17T02:50:46;17.80;94.00
58809;DHT22;44579;51.672;7.834;2023-08-17T02:53:13;17.90;93.80
58809;DHT22;44579;51.672;7.834;2023-08-17T02:55:40;18.00;93.50
58809;DHT22;44579;51.672;7.834;2023-08-17T02:58:07;18.10;93.40
58809;DHT22;44579;51.672;7.834;2023-08-17T03:00:34;18.10;93.20
58809;DHT22;44579;51.672;7.834;2023-08-17T03:03:01;18.10;93.10
58809;DHT22;44579;51.672;7.834;2023-08-17T03:05:30;18.10;93.00
58809;DHT22;44579;51.672;7.834;2023-08-17T03:07:57;18.20;92.90
58809;DHT22;44579;51.672;7.834;2023-08-17T03:10:24;18.10;92.90
58809;DHT22;44579;51.672;7.834;2023-08-17T03:12:51;18.10;92.90
58809;DHT22;44579;51.672;7.834;2023-08-17T03:15:19;18.00;93.10
58809;DHT22;44579;51.672;7.834;2023-08-17T03:17:47;17.90;93.20
58809;DHT22;44579;51.672;7.834;2023-08-17T03:20:15;17.90;93.40
58809;DHT22;44579;51.672;7.834;2023-08-17T03:22:42;17.90;93.60
58809;DHT22;44579;51.672;7.834;2023-08-17T03:25:10;17.80;93.80
58809;DHT22;44579;51.672;7.834;2023-08-17T03:27:41;17.70;94.00
58809;DHT22;44579;51.672;7.834;2023-08-17T03:30:08;17.70;94.20
58809;DHT22;44579;51.672;7.834;2023-08-17T03:32:36;17.60;94.20
58809;DHT22;44579;51.672;7.834;2023-08-17T03:35:03;17.60;94.40
58809;DHT22;44579;51.672;7.834;2023-08-17T03:37:30;17.60;94.50
58809;DHT22;44579;51.672;7.834;2023-08-17T03:39:57;17.60;94.40
58809;DHT22;44579;51.672;7.834;2023-08-17T03:42:29;17.60;94.20
58809;DHT22;44579;51.672;7.834;2023-08-17T03:44:56;17.70;94.20
58809;DHT22;44579;51.672;7.834;2023-08-17T03:47:24;17.70;94.00
58809;DHT22;44579;51.672;7.834;2023-08-17T03:49:53;17.80;94.00
58809;DHT22;44579;51.672;7.834;2023-08-17T03:52:19;17.70;94.00
58809;DHT22;44579;51.672;7.834;2023-08-17T03:54:48;17.80;94.00
58809;DHT22;44579;51.672;7.834;2023-08-17T03:57:16;17.80;93.90
58809;DHT22;44579;51.672;7.834;2023-08-17T03:59:43;17.70;94.00
58809;DHT22;44579;51.672;7.834;2023-08-17T04:02:10;17.80;94.10
58809;DHT22;44579;51.672;7.834;2023-08-17T04:04:38;17.90;94.00
58809;DHT22;44579;51.672;7.834;2023-08-17T04:07:09;18.00;93.80
58809;DHT22;44579;51.672;7.834;2023-08-17T04:09:36;18.00;93.60
58809;DHT22;44579;51.672;7.834;2023-08-17T04:12:05;18.00;93.50
58809;DHT22;44579;51.672;7.834;2023-08-17T04:14:35;18.00;93.50
58809;DHT22;44579;51.672;7.834;2023-08-17T04:17:05;18.00;93.50
58809;DHT22;44579;51.672;7.834;2023-08-17T04:19:32;18.00;93.40
58809;DHT22;44579;51.672;7.834;2023-08-17T04:22:01;18.00;93.30
58809;DHT22;44579;51.672;7.834;2023-08-17T04:24:29;18.00;93.30
58809;DHT22;44579;51.672;7.834;2023-08-17T04:26:56;18.00;93.30
58809;DHT22;44579;51.672;7.834;2023-08-17T04:29:23;18.10;93.30
58809;DHT22;44579;51.672;7.834;2023-08-17T04:31:50;18.10;93.10
58809;DHT22;44579;51.672;7.834;2023-08-17T04:34:18;18.10;93.10
58809;DHT22;44579;51.672;7.834;2023-08-17T04:36:46;18.10;93.10
58809;DHT22;44579;51.672;7.834;2023-08-17T04:41:59;18.00;93.10
58809;DHT22;44579;51.672;7.834;2023-08-17T04:44:38;18.00;93.10
58809;DHT22;44579;51.672;7.834;2023-08-17T04:47:14;18.00;93.20
58809;DHT22;44579;51.672;7.834;2023-08-17T04:49:50;18.00;93.20
58809;DHT22;44579;51.672;7.834;2023-08-17T04:52:45;17.90;93.30
58809;DHT22;44579;51.672;7.834;2023-08-17T04:55:36;17.90;93.50
58809;DHT22;44579;51.672;7.834;2023-08-17T04:58:36;17.90;93.60
58809;DHT22;44579;51.672;7.834;2023-08-17T05:01:13;17.80;93.70
58809;DHT22;44579;51.672;7.834;2023-08-17T05:03:53;17.90;93.70
58809;DHT22;44579;51.672;7.834;2023-08-17T05:06:31;17.80;93.60
58809;DHT22;44579;51.672;7.834;2023-08-17T05:09:07;17.90;93.50
58809;DHT22;44579;51.672;7.834;2023-08-17T05:11:42;17.90;93.40
58809;DHT22;44579;51.672;7.834;2023-08-17T05:14:21;17.90;93.40
58809;DHT22;44579;51.672;7.834;2023-08-17T05:17:45;17.90;93.50
58809;DHT22;44579;51.672;7.834;2023-08-17T05:20:26;17.90;93.60
58809;DHT22;44579;51.672;7.834;2023-08-17T05:24:07;17.90;93.50
58809;DHT22;44579;51.672;7.834;2023-08-17T05:27:07;17.90;93.40
58809;DHT22;44579;51.672;7.834;2023-08-17T05:33:57;18.00;93.50
58809;DHT22;44579;51.672;7.834;2023-08-17T05:37:13;18.00;93.40
58809;DHT22;44579;51.672;7.834;2023-08-17T05:46:38;18.10;93.40
58809;DHT22;44579;51.672;7.834;2023-08-17T05:49:43;18.00;93.60
58809;DHT22;44579;51.672;7.834;2023-08-17T05:56:20;18.00;93.80
58809;DHT22;44579;51.672;7.834;2023-08-17T05:59:30;18.00;93.80
58809;DHT22;44579;51.672;7.834;2023-08-17T06:02:43;18.00;93.80
58809;DHT22;44579;51.672;7.834;2023-08-17T06:05:41;18.00;93.80
58809;DHT22;44579;51.672;7.834;2023-08-17T06:08:37;18.10;93.70
58809;DHT22;44579;51.672;7.834;2023-08-17T06:20:05;18.20;93.50
58809;DHT22;44579;51.672;7.834;2023-08-17T06:31:21;18.30;93.40
58809;DHT22;44579;51.672;7.834;2023-08-17T06:39:28;18.40;93.30
58809;DHT22;44579;51.672;7.834;2023-08-17T06:58:42;18.50;93.20
58809;DHT22;44579;51.672;7.834;2023-08-17T07:37:29;18.80;92.70
58809;DHT22;44579;51.672;7.834;2023-08-17T07:40:56;18.90;92.60
58809;DHT22;44579;51.672;7.834;2023-08-17T07:43:24;18.90;92.60
58809;DHT22;44579;51.672;7.834;2023-08-17T07:45:54;18.80;92.60
58809;DHT22;44579;51.672;7.834;2023-08-17T07:48:22;18.90;92.60
58809;DHT22;44579;51.672;7.834;2023-08-17T07:50:50;18.90;92.60
58809;DHT22;44579;51.672;7.834;2023-08-17T07:53:18;19.00;92.60
58809;DHT22;44579;51.672;7.834;2023-08-17T07:55:46;18.90;92.50
58809;DHT22;44579;51.672;7.834;2023-08-17T07:58:16;18.90;92.60
58809;DHT22;44579;51.672;7.834;2023-08-17T08:00:43;18.90;92.60
58809;DHT22;44579;51.672;7.834;2023-08-17T08:03:11;19.00;92.60
58809;DHT22;44579;51.672;7.834;2023-08-17T08:05:38;19.00;92.50
58809;DHT22;44579;51.672;7.834;2023-08-17T08:08:06;19.00;92.40
58809;DHT22;44579;51.672;7.834;2023-08-17T08:10:33;19.10;92.40
58809;DHT22;44579;51.672;7.834;2023-08-17T08:13:02;19.20;92.40
58809;DHT22;44579;51.672;7.834;2023-08-17T08:15:29;19.30;92.30
58809;DHT22;44579;51.672;7.834;2023-08-17T08:17:56;19.30;92.30
58809;DHT22;44579;51.672;7.834;2023-08-17T08:20:24;19.30;92.30
58809;DHT22;44579;51.672;7.834;2023-08-17T08:22:52;19.40;92.30
58809;DHT22;44579;51.672;7.834;2023-08-17T08:25:19;19.40;92.30
58809;DHT22;44579;51.672;7.834;2023-08-17T08:27:47;19.50;92.30
58809;DHT22;44579;51.672;7.834;2023-08-17T08:30:14;19.50;92.30
58809;DHT22;44579;51.672;7.834;2023-08-17T08:32:41;19.50;92.40
58809;DHT22;44579;51.672;7.834;2023-08-17T08:35:08;19.60;92.30
58809;DHT22;44579;51.672;7.834;2023-08-17T08:37:36;19.50;92.30
58809;DHT22;44579;51.672;7.834;2023-08-17T08:40:06;19.50;92.30
58809;DHT22;44579;51.672;7.834;2023-08-17T08:42:39;19.50;92.40
58809;DHT22;44579;51.672;7.834;2023-08-17T08:45:06;19.40;92.30
58809;DHT22;44579;51.672;7.834;2023-08-17T08:47:34;19.30;92.40
58809;DHT22;44579;51.672;7.834;2023-08-17T08:50:02;19.30;92.60
58809;DHT22;44579;51.672;7.834;2023-08-17T08:55:03;19.30;92.50
58809;DHT22;44579;51.672;7.834;2023-08-17T08:57:31;19.40;92.40
58809;DHT22;44579;51.672;7.834;2023-08-17T08:59:59;19.40;92.40
58809;DHT22;44579;51.672;7.834;2023-08-17T09:02:25;19.40;92.30
58809;DHT22;44579;51.672;7.834;2023-08-17T09:04:53;19.50;92.20
58809;DHT22;44579;51.672;7.834;2023-08-17T09:07:21;19.50;92.10
58809;DHT22;44579;51.672;7.834;2023-08-17T09:09:48;19.50;92.10
58809;DHT22;44579;51.672;7.834;2023-08-17T09:12:16;19.40;92.10
58809;DHT22;44579;51.672;7.834;2023-08-17T09:14:59;19.40;92.30
58809;DHT22;44579;51.672;7.834;2023-08-17T09:17:27;19.50;92.30
58809;DHT22;44579;51.672;7.834;2023-08-17T09:19:57;19.50;92.20
58809;DHT22;44579;51.672;7.834;2023-08-17T09:22:25;19.50;92.20
58809;DHT22;44579;51.672;7.834;2023-08-17T09:24:52;19.50;92.20
58809;DHT22;44579;51.672;7.834;2023-08-17T09:27:20;19.60;92.20
58809;DHT22;44579;51.672;7.834;2023-08-17T09:29:47;19.60;92.10
58809;DHT22;44579;51.672;7.834;2023-08-17T09:32:14;19.60;92.10
58809;DHT22;44579;51.672;7.834;2023-08-17T09:34:43;19.60;92.10
58809;DHT22;44579;51.672;7.834;2023-08-17T09:37:14;19.60;92.10
58809;DHT22;44579;51.672;7.834;2023-08-17T09:39:41;19.70;92.10
58809;DHT22;44579;51.672;7.834;2023-08-17T09:42:09;19.70;92.00
58809;DHT22;44579;51.672;7.834;2023-08-17T09:44:37;19.70;92.00
58809;DHT22;44579;51.672;7.834;2023-08-17T09:47:05;19.80;92.00
58809;DHT22;44579;51.672;7.834;2023-08-17T09:49:32;19.80;92.00
58809;DHT22;44579;51.672;7.834;2023-08-17T09:52:02;19.80;91.90
58809;DHT22;44579;51.672;7.834;2023-08-17T09:54:30;19.90;91.90
58809;DHT22;44579;51.672;7.834;2023-08-17T09:56:57;19.90;91.90
58809;DHT22;44579;51.672;7.834;2023-08-17T09:59:24;20.00;91.90
58809;DHT22;44579;51.672;7.834;2023-08-17T10:01:55;20.00;91.90
58809;DHT22;44579;51.672;7.834;2023-08-17T10:04:23;20.10;92.00
58809;DHT22;44579;51.672;7.834;2023-08-17T10:07:11;20.10;91.90
58809;DHT22;44579;51.672;7.834;2023-08-17T10:09:40;20.20;91.90
58809;DHT22;44579;51.672;7.834;2023-08-17T10:12:10;20.20;91.80
58809;DHT22;44579;51.672;7.834;2023-08-17T10:14:39;20.20;91.90
58809;DHT22;44579;51.672;7.834;2023-08-17T10:17:09;20.20;91.90
58809;DHT22;44579;51.672;7.834;2023-08-17T10:19:45;20.20;91.80
58809;DHT22;44579;51.672;7.834;2023-08-17T10:22:20;20.30;91.80
58809;DHT22;44579;51.672;7.834;2023-08-17T10:24:50;20.30;91.80
58809;DHT22;44579;51.672;7.834;2023-08-17T10:27:17;20.30;92.10
58809;DHT22;44579;51.672;7.834;2023-08-17T10:29:45;20.40;91.70
58809;DHT22;44579;51.672;7.834;2023-08-17T10:32:13;20.40;91.70
58809;DHT22;44579;51.672;7.834;2023-08-17T10:34:42;20.40;91.60
58809;DHT22;44579;51.672;7.834;2023-08-17T10:37:10;20.50;91.60
58809;DHT22;44579;51.672;7.834;2023-08-17T10:39:42;20.50;91.60
58809;DHT22;44579;51.672;7.834;2023-08-17T10:42:11;20.50;91.50
58809;DHT22;44579;51.672;7.834;2023-08-17T10:44:48;20.50;91.50
58809;DHT22;44579;51.672;7.834;2023-08-17T10:47:31;20.50;91.40
58809;DHT22;44579;51.672;7.834;2023-08-17T10:50:06;20.50;91.40
58809;DHT22;44579;51.672;7.834;2023-08-17T10:52:36;20.50;91.40
58809;DHT22;44579;51.672;7.834;2023-08-17T10:55:07;20.50;91.40
58809;DHT22;44579;51.672;7.834;2023-08-17T10:57:37;20.50;91.50
58809;DHT22;44579;51.672;7.834;2023-08-17T11:00:15;20.50;91.50
58809;DHT22;44579;51.672;7.834;2023-08-17T11:03:08;20.50;91.50
58809;DHT22;44579;51.672;7.834;2023-08-17T11:05:34;20.60;91.60
58809;DHT22;44579;51.672;7.834;2023-08-17T11:08:02;20.70;91.50
58809;DHT22;44579;51.672;7.834;2023-08-17T11:10:29;20.70;91.50
58809;DHT22;44579;51.672;7.834;2023-08-17T11:12:59;20.70;91.40
58809;DHT22;44579;51.672;7.834;2023-08-17T11:15:26;20.70;91.40
58809;DHT22;44579;51.672;7.834;2023-08-17T11:18:04;20.80;91.50
58809;DHT22;44579;51.672;7.834;2023-08-17T11:20:36;20.90;91.50
58809;DHT22;44579;51.672;7.834;2023-08-17T11:23:08;20.90;91.40
58809;DHT22;44579;51.672;7.834;2023-08-17T11:25:36;21.00;91.30
58809;DHT22;44579;51.672;7.834;2023-08-17T11:28:05;21.10;91.20
58809;DHT22;44579;51.672;7.834;2023-08-17T11:30:35;21.00;91.30
58809;DHT22;44579;51.672;7.834;2023-08-17T11:33:06;21.00;91.40
58809;DHT22;44579;51.672;7.834;2023-08-17T11:35:35;21.00;91.30
58809;DHT22;44579;51.672;7.834;2023-08-17T11:38:02;20.90;91.30
58809;DHT22;44579;51.672;7.834;2023-08-17T11:40:35;21.00;91.20
58809;DHT22;44579;51.672;7.834;2023-08-17T11:43:04;20.90;91.00
58809;DHT22;44579;51.672;7.834;2023-08-17T11:45:31;21.00;91.00
58809;DHT22;44579;51.672;7.834;2023-08-17T11:47:58;20.90;91.00
58809;DHT22;44579;51.672;7.834;2023-08-17T11:50:26;20.90;91.10
58809;DHT22;44579;51.672;7.834;2023-08-17T11:52:58;20.90;91.30
58809;DHT22;44579;51.672;7.834;2023-08-17T11:55:25;20.80;91.50
58809;DHT22;44579;51.672;7.834;2023-08-17T11:57:52;20.90;91.50
58809;DHT22;44579;51.672;7.834;2023-08-17T12:00:20;20.90;91.60
58809;DHT22;44579;51.672;7.834;2023-08-17T12:02:48;20.90;91.40
58809;DHT22;44579;51.672;7.834;2023-08-17T12:05:22;20.90;91.50
58809;DHT22;44579;51.672;7.834;2023-08-17T12:07:50;21.00;91.50
58809;DHT22;44579;51.672;7.834;2023-08-17T12:10:19;21.00;91.30
58809;DHT22;44579;51.672;7.834;2023-08-17T12:12:49;21.00;91.30
58809;DHT22;44579;51.672;7.834;2023-08-17T12:15:17;21.00;91.20
58809;DHT22;44579;51.672;7.834;2023-08-17T12:17:48;21.00;91.10
58809;DHT22;44579;51.672;7.834;2023-08-17T12:20:17;20.90;91.10
58809;DHT22;44579;51.672;7.834;2023-08-17T12:22:45;20.90;91.10
58809;DHT22;44579;51.672;7.834;2023-08-17T12:25:12;21.00;91.10
58809;DHT22;44579;51.672;7.834;2023-08-17T12:27:39;21.10;91.10
58809;DHT22;44579;51.672;7.834;2023-08-17T12:30:14;21.10;91.10
58809;DHT22;44579;51.672;7.834;2023-08-17T12:32:42;21.20;91.10
58809;DHT22;44579;51.672;7.834;2023-08-17T12:35:13;21.30;91.20
58809;DHT22;44579;51.672;7.834;2023-08-17T12:37:40;21.40;91.10
58809;DHT22;44579;51.672;7.834;2023-08-17T12:40:07;21.50;91.10
58809;DHT22;44579;51.672;7.834;2023-08-17T12:42:36;21.60;91.00
58809;DHT22;44579;51.672;7.834;2023-08-17T12:45:03;21.60;91.00
58809;DHT22;44579;51.672;7.834;2023-08-17T12:47:31;21.70;91.00
58809;DHT22;44579;51.672;7.834;2023-08-17T12:50:01;21.80;91.10
58809;DHT22;44579;51.672;7.834;2023-08-17T12:52:32;21.80;91.20
58809;DHT22;44579;51.672;7.834;2023-08-17T12:55:02;21.80;91.30
58809;DHT22;44579;51.672;7.834;2023-08-17T12:57:29;21.80;91.50
58809;DHT22;44579;51.672;7.834;2023-08-17T12:59:57;22.00;91.50
58809;DHT22;44579;51.672;7.834;2023-08-17T13:02:25;22.00;91.60
58809;DHT22;44579;51.672;7.834;2023-08-17T13:04:53;22.00;91.70
58809;DHT22;44579;51.672;7.834;2023-08-17T13:07:21;22.00;91.70
58809;DHT22;44579;51.672;7.834;2023-08-17T13:09:48;22.10;91.50
58809;DHT22;44579;51.672;7.834;2023-08-17T13:12:15;22.10;91.40
58809;DHT22;44579;51.672;7.834;2023-08-17T13:14:42;22.10;91.20
58809;DHT22;44579;51.672;7.834;2023-08-17T13:17:09;22.10;91.00
58809;DHT22;44579;51.672;7.834;2023-08-17T13:19:38;22.10;90.90
58809;DHT22;44579;51.672;7.834;2023-08-17T13:22:05;22.00;90.80
58809;DHT22;44579;51.672;7.834;2023-08-17T13:24:32;22.00;90.80
58809;DHT22;44579;51.672;7.834;2023-08-17T13:26:59;21.90;90.40
58809;DHT22;44579;51.672;7.834;2023-08-17T13:29:26;21.90;90.40
58809;DHT22;44579;51.672;7.834;2023-08-17T13:31:53;22.00;90.40
58809;DHT22;44579;51.672;7.834;2023-08-17T13:34:20;21.90;90.40
58809;DHT22;44579;51.672;7.834;2023-08-17T13:36:47;22.00;90.30
58809;DHT22;44579;51.672;7.834;2023-08-17T13:39:14;22.00;90.10
58809;DHT22;44579;51.672;7.834;2023-08-17T13:41:42;21.90;90.00
58809;DHT22;44579;51.672;7.834;2023-08-17T13:44:09;21.90;90.00
58809;DHT22;44579;51.672;7.834;2023-08-17T13:46:36;21.90;90.00
58809;DHT22;44579;51.672;7.834;2023-08-17T13:49:06;21.90;90.00
58809;DHT22;44579;51.672;7.834;2023-08-17T13:51:33;21.90;89.80
58809;DHT22;44579;51.672;7.834;2023-08-17T13:54:00;21.80;89.60
58809;DHT22;44579;51.672;7.834;2023-08-17T13:56:39;21.70;89.70
58809;DHT22;44579;51.672;7.834;2023-08-17T13:59:08;21.70;89.80
58809;DHT22;44579;51.672;7.834;2023-08-17T14:01:35;21.60;89.90
58809;DHT22;44579;51.672;7.834;2023-08-17T14:04:03;21.60;90.10
58809;DHT22;44579;51.672;7.834;2023-08-17T14:06:30;21.50;90.10
58809;DHT22;44579;51.672;7.834;2023-08-17T14:08:57;21.50;90.30
58809;DHT22;44579;51.672;7.834;2023-08-17T14:11:24;21.50;90.20
58809;DHT22;44579;51.672;7.834;2023-08-17T14:13:52;21.50;90.30
58809;DHT22;44579;51.672;7.834;2023-08-17T14:16:19;21.50;90.30
58809;DHT22;44579;51.672;7.834;2023-08-17T14:18:46;21.50;90.30
58809;DHT22;44579;51.672;7.834;2023-08-17T14:21:15;21.60;90.10
58809;DHT22;44579;51.672;7.834;2023-08-17T14:23:42;21.60;90.10
58809;DHT22;44579;51.672;7.834;2023-08-17T14:26:09;21.60;90.00
58809;DHT22;44579;51.672;7.834;2023-08-17T14:28:36;21.60;90.00
58809;DHT22;44579;51.672;7.834;2023-08-17T14:31:03;21.60;90.00
58809;DHT22;44579;51.672;7.834;2023-08-17T14:33:30;21.50;90.00
58809;DHT22;44579;51.672;7.834;2023-08-17T14:35:57;21.50;90.00
58809;DHT22;44579;51.672;7.834;2023-08-17T14:38:24;21.50;90.10
58809;DHT22;44579;51.672;7.834;2023-08-17T14:40:57;21.40;90.00
58809;DHT22;44579;51.672;7.834;2023-08-17T14:43:24;21.50;90.00
58809;DHT22;44579;51.672;7.834;2023-08-17T14:45:51;21.50;90.00
58809;DHT22;44579;51.672;7.834;2023-08-17T14:48:18;21.40;90.00
58809;DHT22;44579;51.672;7.834;2023-08-17T14:50:48;21.40;90.00
58809;DHT22;44579;51.672;7.834;2023-08-17T14:53:15;21.40;90.10
58809;DHT22;44579;51.672;7.834;2023-08-17T14:55:42;21.40;90.10
58809;DHT22;44579;51.672;7.834;2023-08-17T14:58:16;21.40;90.00
58809;DHT22;44579;51.672;7.834;2023-08-17T15:00:43;21.40;90.10
58809;DHT22;44579;51.672;7.834;2023-08-17T15:03:10;21.40;90.00
58809;DHT22;44579;51.672;7.834;2023-08-17T15:05:37;21.40;90.00
58809;DHT22;44579;51.672;7.834;2023-08-17T15:08:08;21.30;90.00
58809;DHT22;44579;51.672;7.834;2023-08-17T15:10:39;21.40;90.00
58809;DHT22;44579;51.672;7.834;2023-08-17T15:13:06;21.30;90.00
58809;DHT22;44579;51.672;7.834;2023-08-17T15:15:37;21.30;90.00
58809;DHT22;44579;51.672;7.834;2023-08-17T15:18:05;21.20;90.10
58809;DHT22;44579;51.672;7.834;2023-08-17T15:20:34;21.20;90.20
58809;DHT22;44579;51.672;7.834;2023-08-17T15:23:04;21.20;90.20
58809;DHT22;44579;51.672;7.834;2023-08-17T15:25:31;21.10;90.10
58809;DHT22;44579;51.672;7.834;2023-08-17T15:28:00;21.20;90.20
58809;DHT22;44579;51.672;7.834;2023-08-17T15:30:27;21.10;90.20
58809;DHT22;44579;51.672;7.834;2023-08-17T15:32:55;21.10;90.20
58809;DHT22;44579;51.672;7.834;2023-08-17T15:35:22;21.10;90.30
58809;DHT22;44579;51.672;7.834;2023-08-17T15:37:49;21.10;90.30
58809;DHT22;44579;51.672;7.834;2023-08-17T15:40:16;21.10;90.30
58809;DHT22;44579;51.672;7.834;2023-08-17T15:42:44;21.10;90.30
58809;DHT22;44579;51.672;7.834;2023-08-17T15:45:12;21.10;90.30
58809;DHT22;44579;51.672;7.834;2023-08-17T15:47:39;21.10;90.30
58809;DHT22;44579;51.672;7.834;2023-08-17T15:50:07;21.20;90.30
58809;DHT22;44579;51.672;7.834;2023-08-17T15:52:36;21.20;90.20
58809;DHT22;44579;51.672;7.834;2023-08-17T15:55:03;21.30;90.20
58809;DHT22;44579;51.672;7.834;2023-08-17T15:57:30;21.30;90.10
58809;DHT22;44579;51.672;7.834;2023-08-17T15:59:57;21.40;90.10
58809;DHT22;44579;51.672;7.834;2023-08-17T16:02:24;21.40;90.10
58809;DHT22;44579;51.672;7.834;2023-08-17T16:04:51;21.40;90.10
58809;DHT22;44579;51.672;7.834;2023-08-17T16:07:19;21.40;90.10
58809;DHT22;44579;51.672;7.834;2023-08-17T16:09:46;21.40;90.50
58809;DHT22;44579;51.672;7.834;2023-08-17T16:12:13;21.40;90.10
58809;DHT22;44579;51.672;7.834;2023-08-17T16:14:42;21.30;90.10
58809;DHT22;44579;51.672;7.834;2023-08-17T16:17:18;21.30;90.20
58809;DHT22;44579;51.672;7.834;2023-08-17T16:19:44;21.20;90.30
58809;DHT22;44579;51.672;7.834;2023-08-17T16:22:12;21.10;90.40
58809;DHT22;44579;51.672;7.834;2023-08-17T16:24:43;21.10;90.50
58809;DHT22;44579;51.672;7.834;2023-08-17T16:27:10;21.10;90.50
58809;DHT22;44579;51.672;7.834;2023-08-17T16:29:37;21.00;90.50
58809;DHT22;44579;51.672;7.834;2023-08-17T16:32:08;21.00;90.50
58809;DHT22;44579;51.672;7.834;2023-08-17T16:34:35;21.00;90.50
58809;DHT22;44579;51.672;7.834;2023-08-17T16:37:02;21.00;90.60
58809;DHT22;44579;51.672;7.834;2023-08-17T16:39:29;20.90;90.50
58809;DHT22;44579;51.672;7.834;2023-08-17T16:41:57;20.90;90.50
58809;DHT22;44579;51.672;7.834;2023-08-17T16:44:25;20.90;90.50
58809;DHT22;44579;51.672;7.834;2023-08-17T16:46:54;20.80;90.60
58809;DHT22;44579;51.672;7.834;2023-08-17T16:49:21;20.80;91.00
58809;DHT22;44579;51.672;7.834;2023-08-17T16:51:55;20.80;90.60
58809;DHT22;44579;51.672;7.834;2023-08-17T16:54:23;20.80;90.70
58809;DHT22;44579;51.672;7.834;2023-08-17T16:56:50;20.80;90.80
58809;DHT22;44579;51.672;7.834;2023-08-17T16:59:19;20.70;90.80
58809;DHT22;44579;51.672;7.834;2023-08-17T17:01:47;20.70;90.80
58809;DHT22;44579;51.672;7.834;2023-08-17T17:04:14;20.60;90.90
58809;DHT22;44579;51.672;7.834;2023-08-17T17:06:43;20.60;90.90
58809;DHT22;44579;51.672;7.834;2023-08-17T17:09:11;20.60;90.90
58809;DHT22;44579;51.672;7.834;2023-08-17T17:11:38;20.60;90.90
58809;DHT22;44579;51.672;7.834;2023-08-17T17:14:05;20.60;90.90
58809;DHT22;44579;51.672;7.834;2023-08-17T17:16:32;20.70;90.90
58809;DHT22;44579;51.672;7.834;2023-08-17T17:18:59;20.60;90.90
58809;DHT22;44579;51.672;7.834;2023-08-17T17:21:26;20.60;90.90
58809;DHT22;44579;51.672;7.834;2023-08-17T17:23:53;20.60;90.90
58809;DHT22;44579;51.672;7.834;2023-08-17T17:26:21;20.60;90.90
58809;DHT22;44579;51.672;7.834;2023-08-17T17:28:48;20.60;90.90